Time;durP1;ratioP1;P1;durP2;ratioP2;P2;SDS_P1;SDS_P2;PMS_P1;PMS_P2;Temp;Humidity;BMP_temperature;BMP_pressure;BME280_temperature;BME280_humidity;BME280_pressure;Samples;Min_cycle;Max_cycle;Signal;HPM_P1;HPM_P2
2022/06/28 00:01:59;;;;;;;;;;;;;;;;;;;;;
2022/06/28 00:04:45;;;;;;;2.90;1.00;;;;;;;10.10;80.49;100706.56;6207357;23;20063;-71
2022/06/28 00:08:25;;;;;;;;;;;;;;;;;;;;;
2022/06/28 00:17:34;;;;;;;11.73;1.65;;;;;;;9.89;81.40;100688.25;6159808;23;20019;-72
2022/06/28 00:21:24;;;;;;;7.82;1.50;;;;;;;9.98;81.84;100708.56;6132875;23;20013;-73
2022/06/28 00:23:34;;;;;;;6.90;1.17;;;;;;;9.94;82.38;100705.53;6153588;23;20384;-74
2022/06/28 00:26:29;;;;;;;5.68;1.40;;;;;;;9.79;82.46;100699.88;6156932;23;20009;-73
2022/06/28 00:28:59;;;;;;;5.88;1.15;;;;;;;9.68;82.42;100674.38;6134338;22;20005;-71
2022/06/28 00:31:37;;;;;;;8.88;1.20;;;;;;;9.69;82.85;100683.38;6224748;23;20015;-72
2022/06/28 00:34:04;;;;;;;6.30;1.20;;;;;;;9.72;83.29;100691.06;6212401;22;20757;-73
2022/06/28 00:36:30;;;;;;;3.35;0.77;;;;;;;9.80;83.17;100709.75;6198768;23;20008;-73
2022/06/28 00:38:55;;;;;;;3.00;1.38;;;;;;;9.71;83.12;100692.13;6223967;23;20066;-71
2022/06/28 00:41:21;;;;;;;3.78;1.02;;;;;;;9.72;82.91;100702.78;6223554;23;20008;-70
2022/06/28 00:43:46;;;;;;;2.65;1.08;;;;;;;9.71;83.49;100709.34;6223787;23;20042;-70
2022/06/28 00:46:12;;;;;;;2.33;0.68;;;;;;;9.78;83.04;100720.06;6250929;23;19996;-72
2022/06/28 00:48:38;;;;;;;4.20;0.95;;;;;;;9.76;83.41;100717.59;6224427;23;19996;-71
2022/06/28 00:51:04;;;;;;;4.30;1.40;;;;;;;9.74;83.26;100708.84;6223843;23;20008;-73
2022/06/28 00:53:30;;;;;;;4.40;1.00;;;;;;;9.75;84.06;100720.59;6174500;23;20008;-72
2022/06/28 00:55:56;;;;;;;2.08;0.68;;;;;;;9.75;83.15;100717.84;6197445;23;20054;-73
2022/06/28 00:58:21;;;;;;;2.42;0.70;;;;;;;9.69;82.92;100707.94;6251114;23;20000;-73
2022/06/28 01:00:49;;;;;;;2.05;0.65;;;;;;;9.63;83.23;100706.25;6224427;23;20024;-72
2022/06/28 01:03:18;;;;;;;2.83;0.52;;;;;;;9.69;83.69;100718.88;6249713;23;20066;-73
2022/06/28 01:05:43;;;;;;;5.90;1.40;;;;;;;9.73;84.48;100717.28;6252406;23;20329;-72
2022/06/28 01:08:10;;;;;;;4.32;1.10;;;;;;;9.68;84.21;100712.59;6222967;23;20004;-72
2022/06/28 01:10:37;;;;;;;3.38;1.23;;;;;;;9.60;84.63;100713.84;6223589;23;20059;-72
2022/06/28 01:13:05;;;;;;;5.45;0.95;;;;;;;9.56;84.24;100707.25;6245082;22;20031;-73
2022/06/28 01:15:31;;;;;;;4.80;0.90;;;;;;;9.46;84.38;100696.16;6217705;23;20007;-73
2022/06/28 01:18:03;;;;;;;7.40;1.20;;;;;;;9.51;84.45;100709.91;6219380;23;20143;-72
2022/06/28 01:20:28;;;;;;;4.90;1.30;;;;;;;9.39;85.39;100692.81;6219880;23;20056;-72
2022/06/28 01:22:54;;;;;;;3.85;1.50;;;;;;;9.51;84.63;100715.34;6216465;23;20011;-73
2022/06/28 01:25:24;;;;;;;7.07;1.40;;;;;;;9.47;85.28;100714.19;6193305;23;20001;-72
2022/06/28 01:27:55;;;;;;;5.93;1.20;;;;;;;9.43;84.86;100715.78;6192065;23;20013;-72
2022/06/28 01:30:24;;;;;;;9.25;1.52;;;;;;;9.37;85.18;100714.06;6219038;23;20012;-73
2022/06/28 01:32:50;;;;;;;5.30;1.17;;;;;;;9.28;85.22;100699.19;6189969;23;20079;-72
2022/06/28 01:35:16;;;;;;;4.22;0.90;;;;;;;9.28;85.40;100704.66;6193678;23;20008;-73
2022/06/28 01:37:52;;;;;;;1.75;0.70;;;;;;;9.18;85.30;100700.69;6217773;23;20005;-72
2022/06/28 01:40:25;;;;;;;1.67;0.52;;;;;;;9.29;85.37;100718.06;6218065;23;20066;-72
2022/06/28 01:42:50;;;;;;;2.47;0.80;;;;;;;9.12;85.28;100700.88;6192827;23;20044;-71
2022/06/28 01:45:27;;;;;;;2.25;0.82;;;;;;;9.23;85.61;100717.16;6193743;23;20088;-74
2022/06/28 01:47:53;;;;;;;2.30;0.57;;;;;;;9.23;85.47;100713.59;6219889;23;20023;-72
2022/06/28 01:50:28;;;;;;;2.40;0.50;;;;;;;9.18;85.24;100700.69;6193421;23;20009;-72
2022/06/28 01:52:59;;;;;;;3.42;0.73;;;;;;;9.22;84.84;100711.94;6218966;23;20034;-72
2022/06/28 01:55:25;;;;;;;1.83;0.43;;;;;;;9.25;84.89;100717.72;6169264;23;20043;-74
2022/06/28 01:57:50;;;;;;;1.80;0.77;;;;;;;9.17;85.36;100704.50;6194444;23;19997;-72
2022/06/28 02:00:16;;;;;;;0.60;0.32;;;;;;;9.22;84.94;100718.22;6220528;23;20324;-72
2022/06/28 02:03:02;;;;;;;0.60;0.30;;;;;;;9.18;85.24;100722.50;6190834;23;20390;-71
2022/06/28 02:05:33;;;;;;;0.95;0.50;;;;;;;9.09;85.41;100710.38;6208649;23;20033;-71
2022/06/28 02:07:59;;;;;;;2.20;0.80;;;;;;;9.17;85.29;100723.59;6220138;23;20091;-70
2022/06/28 02:10:35;;;;;;;;;;;;;;;;;;;;;
2022/06/28 02:13:01;;;;;;;2.42;0.90;;;;;;;9.14;85.42;100718.66;6223796;22;20372;-72
2022/06/28 02:15:26;;;;;;;2.55;0.82;;;;;;;9.12;86.04;100719.97;6248900;23;20023;-73
2022/06/28 02:17:58;;;;;;;0.88;0.50;;;;;;;9.14;85.67;100724.09;6199379;23;20031;-72
2022/06/28 02:20:36;;;;;;;1.25;0.50;;;;;;;9.08;85.48;100722.34;6223922;23;20004;-74
2022/06/28 02:23:04;;;;;;;2.78;0.82;;;;;;;8.99;85.81;100707.50;6224317;23;20015;-73
2022/06/28 02:25:37;;;;;;;3.88;0.73;;;;;;;9.03;86.15;100708.66;6198921;23;20010;-73
2022/06/28 02:28:02;;;;;;;6.53;0.95;;;;;;;9.10;86.16;100725.69;6249548;23;20304;-72
2022/06/28 02:30:28;;;;;;;1.00;0.60;;;;;;;9.02;85.95;100705.09;6223503;23;20019;-73
2022/06/28 02:32:53;;;;;;;2.22;0.55;;;;;;;9.05;86.07;100712.78;6248654;23;20084;-72
2022/06/28 02:40:49;;;;;;;2.10;0.60;;;;;;;8.99;86.48;100705.56;6227797;23;20095;-72
2022/06/28 02:43:14;;;;;;;4.95;0.90;;;;;;;8.98;86.66;100705.81;6221711;23;20236;-72
2022/06/28 02:45:42;;;;;;;7.25;1.10;;;;;;;8.95;86.53;100700.88;6196062;23;20031;-72
2022/06/28 02:48:08;;;;;;;6.10;0.95;;;;;;;8.96;87.12;100697.06;6223128;23;20004;-73
2022/06/28 02:50:43;;;;;;;3.92;0.70;;;;;;;8.90;87.17;100687.97;6249356;23;20000;-72
2022/06/28 02:53:08;;;;;;;13.15;1.40;;;;;;;8.94;87.28;100696.50;6250435;23;20001;-74
2022/06/28 02:55:34;;;;;;;4.43;0.95;;;;;;;8.94;87.43;100689.16;6223546;23;20328;-74
2022/06/28 02:57:59;;;;;;;9.23;1.60;;;;;;;8.93;88.00;100697.56;6221262;23;20015;-74
2022/06/28 03:00:36;;;;;;;7.18;1.20;;;;;;;8.90;88.39;100687.97;6251104;23;20004;-74
2022/06/28 03:03:02;;;;;;;3.17;0.82;;;;;;;8.90;88.29;100691.53;6222356;23;20012;-75
2022/06/28 03:05:27;;;;;;;3.33;1.20;;;;;;;8.86;88.41;100682.22;6224427;23;20528;-74
2022/06/28 03:07:53;;;;;;;3.22;0.80;;;;;;;8.87;88.13;100681.13;6224002;23;20004;-73
2022/06/28 03:10:19;;;;;;;4.35;1.23;;;;;;;8.91;89.25;100679.56;6222825;23;20088;-74
2022/06/28 03:12:45;;;;;;;5.78;1.55;;;;;;;8.94;89.09;100669.22;6247753;22;20583;-75
2022/06/28 03:15:11;;;;;;;3.17;1.10;;;;;;;8.96;89.57;100669.81;6248140;23;20031;-74
2022/06/28 03:17:37;;;;;;;8.32;1.33;;;;;;;8.95;89.23;100662.69;6249450;23;20004;-74
2022/06/28 03:20:03;;;;;;;7.10;1.23;;;;;;;8.94;89.47;100671.97;6222545;23;20004;-74
2022/06/28 03:22:28;;;;;;;9.60;1.60;;;;;;;8.89;90.21;100654.44;6248819;23;20091;-75
2022/06/28 03:24:54;;;;;;;6.60;1.25;;;;;;;8.90;89.81;100661.53;6223568;23;20012;-76
2022/06/28 03:27:19;;;;;;;3.03;1.35;;;;;;;8.94;90.83;100669.22;6223237;23;20650;-75
2022/06/28 03:29:51;;;;;;;7.65;1.50;;;;;;;8.83;91.05;100646.41;6193203;23;20012;-73
2022/06/28 03:32:17;;;;;;;4.50;1.38;;;;;;;8.83;90.82;100649.97;6249205;23;20007;-74
2022/06/28 03:34:42;;;;;;;5.28;1.35;;;;;;;8.88;90.88;100652.78;6249684;23;20088;-73
2022/06/28 03:37:08;;;;;;;7.03;1.33;;;;;;;8.91;91.20;100657.72;6222410;23;20008;-74
2022/06/28 03:39:33;;;;;;;5.45;1.90;;;;;;;8.82;92.17;100640.16;6222073;23;20012;-74
2022/06/28 03:41:59;;;;;;;6.55;1.40;;;;;;;8.98;92.86;100651.28;6222597;23;20000;-73
2022/06/28 03:44:24;;;;;;;6.03;1.13;;;;;;;8.95;92.38;100644.44;6223827;23;20094;-74
2022/06/28 03:46:50;;;;;;;6.05;1.85;;;;;;;8.95;92.92;100649.03;6221580;23;20004;-74
2022/06/28 03:49:15;;;;;;;5.22;1.50;;;;;;;8.94;92.63;100645.50;6199043;23;20066;-74
2022/06/28 03:51:40;;;;;;;4.78;0.80;;;;;;;8.95;92.63;100660.81;6249509;23;20008;-74
2022/06/28 03:54:06;;;;;;;7.55;1.63;;;;;;;8.93;93.07;100648.47;6251142;23;20004;-74
2022/06/28 03:56:31;;;;;;;8.30;1.25;;;;;;;8.91;93.24;100641.38;6249957;23;20015;-74
2022/06/28 03:58:59;;;;;;;4.80;1.40;;;;;;;8.89;93.60;100640.81;6250165;23;20008;-74
2022/06/28 04:01:27;;;;;;;7.82;1.33;;;;;;;8.83;93.82;100639.06;6225148;23;20077;-74
2022/06/28 04:03:53;;;;;;;4.30;1.27;;;;;;;8.84;93.51;100635.25;6223256;23;20003;-74
2022/06/28 04:06:21;;;;;;;10.55;1.67;;;;;;;8.98;93.19;100654.00;6249170;23;20426;-74
2022/06/28 04:08:47;;;;;;;16.23;1.73;;;;;;;8.87;93.82;100640.22;6221220;23;20062;-73
2022/06/28 04:11:16;;;;;;;3.33;1.30;;;;;;;8.99;93.99;100647.47;6250898;23;20020;-74
2022/06/28 04:13:44;;;;;;;5.10;1.23;;;;;;;8.99;94.07;100652.94;6225658;22;20023;-74
2022/06/28 04:16:10;;;;;;;5.20;1.05;;;;;;;8.86;94.34;100635.84;6252520;23;20051;-74
2022/06/28 04:18:35;;;;;;;3.85;1.58;;;;;;;8.95;93.54;100640.88;6225654;23;20418;-74
2022/06/28 04:21:01;;;;;;;6.90;1.65;;;;;;;8.94;94.21;100644.69;6250264;23;20079;-74
2022/06/28 04:23:29;;;;;;;8.60;1.42;;;;;;;8.90;94.25;100634.25;6248285;23;20054;-74
2022/06/28 04:25:57;;;;;;;7.00;1.67;;;;;;;8.98;94.14;100645.81;6223461;23;20019;-73
2022/06/28 04:28:25;;;;;;;6.45;1.63;;;;;;;9.10;94.42;100668.38;6225035;23;20014;-74
2022/06/28 04:30:54;;;;;;;11.35;1.95;;;;;;;9.16;94.75;100663.84;6222605;23;20003;-74
2022/06/28 04:33:25;;;;;;;9.27;1.88;;;;;;;9.17;94.80;100666.31;6251391;23;20023;-75
2022/06/28 04:35:51;;;;;;;3.92;1.13;;;;;;;9.15;95.20;100657.53;6223679;23;20083;-75
2022/06/28 04:38:29;;;;;;;;;;;;;;;;;;;;;
2022/06/28 04:40:55;;;;;;;5.90;1.58;;;;;;;9.18;94.31;100635.19;6251272;23;20043;-76
2022/06/28 04:43:37;;;;;;;4.82;1.48;;;;;;;9.19;94.78;100615.03;6223893;23;20004;-75
2022/06/28 04:46:03;;;;;;;7.22;1.67;;;;;;;9.24;94.40;100628.75;6202384;23;20193;-74
2022/06/28 04:52:04;;;;;;;6.65;1.42;;;;;;;9.41;94.82;100633.34;6155295;23;20008;-74
2022/06/28 04:54:33;;;;;;;5.35;1.77;;;;;;;9.33;94.34;100614.66;6250848;23;20423;-74
2022/06/28 04:56:59;;;;;;;12.50;2.20;;;;;;;9.38;94.65;100606.53;6222909;23;20058;-74
2022/06/28 04:59:34;;;;;;;3.00;1.42;;;;;;;9.57;94.60;100632.44;6223642;23;20043;-73
2022/06/28 05:01:59;;;;;;;8.95;2.20;;;;;;;9.65;94.46;100622.16;6224405;22;20015;-74
2022/06/28 05:04:25;;;;;;;7.18;1.60;;;;;;;9.79;94.56;100623.41;6223775;23;20004;-74
2022/06/28 05:06:50;;;;;;;6.90;1.63;;;;;;;9.79;94.42;100596.09;6219941;23;20004;-73
2022/06/28 05:09:21;;;;;;;16.00;2.15;;;;;;;9.92;94.06;100612.06;6217848;23;20008;-74
2022/06/28 05:11:46;;;;;;;5.18;1.65;;;;;;;10.01;93.76;100600.69;6222611;23;20083;-75
2022/06/28 05:14:13;;;;;;;5.00;1.38;;;;;;;10.18;93.68;100608.78;6197533;23;20016;-73
2022/06/28 05:16:41;;;;;;;6.68;1.90;;;;;;;10.30;92.98;100613.00;6247845;23;20437;-74
2022/06/28 05:19:30;;;;;;;7.97;1.60;;;;;;;10.29;92.72;100600.44;6222615;23;20039;-75
2022/06/28 05:21:52;;;;;;;8.23;1.55;;;;;;;10.34;93.21;100582.44;6246218;23;20004;-74
2022/06/28 05:24:17;;;;;;;5.15;1.85;;;;;;;10.55;92.58;100591.63;6223439;23;20078;-74
2022/06/28 05:26:45;;;;;;;7.75;1.58;;;;;;;10.64;91.95;100595.53;6222867;23;20476;-74
2022/06/28 05:29:11;;;;;;;11.13;1.73;;;;;;;10.83;91.75;100604.97;6223921;23;20045;-75
2022/06/28 05:31:39;;;;;;;6.07;1.40;;;;;;;10.82;90.58;100586.09;6248208;23;20522;-75
2022/06/28 05:34:04;;;;;;;6.75;1.63;;;;;;;10.93;90.53;100590.53;6224581;23;20023;-74
2022/06/28 05:36:32;;;;;;;13.23;1.67;;;;;;;11.03;90.47;100597.16;6220961;23;20004;-74
2022/06/28 05:38:58;;;;;;;6.32;1.58;;;;;;;11.13;90.37;100586.28;6222885;23;20011;-74
2022/06/28 05:41:23;;;;;;;10.90;1.50;;;;;;;11.23;90.19;100586.31;6223517;23;20012;-74
2022/06/28 05:43:49;;;;;;;13.38;1.73;;;;;;;11.38;89.13;100601.19;6196758;23;20008;-73
2022/06/28 05:46:15;;;;;;;7.47;1.42;;;;;;;11.50;89.42;100597.09;6223813;23;20323;-75
2022/06/28 05:48:40;;;;;;;8.48;1.25;;;;;;;11.59;88.86;100588.38;6248814;23;20015;-75
2022/06/28 05:51:06;;;;;;;3.30;1.40;;;;;;;11.69;88.41;100594.69;6196735;23;20492;-74
2022/06/28 05:53:31;;;;;;;11.15;1.30;;;;;;;11.82;87.67;100587.88;6221569;23;20074;-74
2022/06/28 05:55:57;;;;;;;14.60;1.65;;;;;;;11.91;87.20;100596.41;6222491;23;20016;-74
2022/06/28 05:58:25;;;;;;;3.47;1.45;;;;;;;11.93;87.02;100576.94;6250781;23;20025;-75
2022/06/28 06:00:54;;;;;;;5.90;1.23;;;;;;;12.00;87.23;100588.50;6248069;23;20086;-75
2022/06/28 06:03:19;;;;;;;13.52;1.52;;;;;;;12.14;86.24;100597.84;6224406;23;20039;-73
2022/06/28 06:05:44;;;;;;;9.05;1.20;;;;;;;12.13;86.50;100592.63;6222504;23;20407;-74
2022/06/28 06:08:13;;;;;;;9.05;1.50;;;;;;;12.25;86.10;100593.22;6223490;23;20483;-73
2022/06/28 06:10:38;;;;;;;8.30;1.75;;;;;;;12.31;85.68;100589.38;6221221;23;20393;-74
2022/06/28 06:13:04;;;;;;;9.65;1.48;;;;;;;12.45;84.90;100602.53;6219863;22;20067;-76
2022/06/28 06:15:29;;;;;;;11.05;1.48;;;;;;;12.54;84.95;100609.09;6246657;23;20008;-76
2022/06/28 06:17:56;;;;;;;7.78;1.50;;;;;;;12.61;84.03;100597.88;6244853;23;20070;-74
2022/06/28 06:20:22;;;;;;;9.93;1.63;;;;;;;12.75;84.06;100599.78;6196144;23;20039;-75
2022/06/28 06:22:47;;;;;;;7.07;1.40;;;;;;;12.80;83.43;100589.88;6220662;23;20000;-74
2022/06/28 06:25:13;;;;;;;9.77;1.30;;;;;;;12.96;82.74;100598.91;6248140;23;20057;-74
2022/06/28 06:27:39;;;;;;;20.88;1.63;;;;;;;12.96;81.94;100593.44;6219472;23;20000;-73
2022/06/28 06:30:06;;;;;;;10.07;1.80;;;;;;;13.05;81.26;100609.06;6196289;23;20006;-74
2022/06/28 06:32:33;;;;;;;5.75;1.40;;;;;;;13.04;81.95;100601.91;6197785;23;20008;-74
2022/06/28 06:34:59;;;;;;;9.68;2.42;;;;;;;13.15;81.24;100610.13;6197677;23;20004;-79
2022/06/28 06:37:24;;;;;;;8.02;2.22;;;;;;;13.25;79.95;100621.09;6222403;23;20069;-77
2022/06/28 06:39:53;;;;;;;10.40;1.73;;;;;;;13.28;79.64;100590.31;6200717;23;20055;-75
2022/06/28 06:42:19;;;;;;;9.50;1.83;;;;;;;13.41;79.41;100606.22;6247522;23;20158;-76
2022/06/28 06:45:01;;;;;;;;;;;;;;;;;;;;;
2022/06/28 06:47:26;;;;;;;5.90;1.02;;;;;;;13.70;77.37;100613.78;6250476;23;20035;-78
2022/06/28 06:49:54;;;;;;;10.60;1.35;;;;;;;13.73;76.94;100613.22;6223793;23;20008;-78
2022/06/28 06:52:20;;;;;;;14.88;2.83;;;;;;;13.83;75.91;100611.50;6198310;23;20005;-76
2022/06/28 06:54:49;;;;;;;9.50;2.05;;;;;;;13.89;75.74;100602.16;6251092;23;20019;-76
2022/06/28 06:57:15;;;;;;;11.25;1.98;;;;;;;14.02;73.47;100598.78;6250816;23;20000;-76
2022/06/28 06:59:40;;;;;;;9.68;2.42;;;;;;;14.02;73.51;100604.28;6250662;23;19992;-77
2022/06/28 07:02:06;;;;;;;16.80;2.30;;;;;;;13.99;71.73;100607.59;6224568;23;20488;-76
2022/06/28 07:04:32;;;;;;;11.70;1.75;;;;;;;14.20;72.32;100610.22;6224002;23;20008;-76
2022/06/28 07:06:57;;;;;;;8.50;1.52;;;;;;;14.32;71.95;100596.91;6223776;23;20427;-76
2022/06/28 07:09:23;;;;;;;10.57;1.35;;;;;;;14.45;72.29;100607.25;6200404;23;20015;-76
2022/06/28 07:11:49;;;;;;;6.40;1.40;;;;;;;14.66;71.44;100613.44;6174386;23;20004;-77
2022/06/28 07:14:14;;;;;;;6.18;1.30;;;;;;;14.74;71.07;100603.72;6251701;22;20019;-76
2022/06/28 07:16:39;;;;;;;8.88;1.45;;;;;;;14.71;70.45;100614.50;6224941;23;20014;-77
2022/06/28 07:19:05;;;;;;;9.05;1.73;;;;;;;14.66;70.41;100601.63;6251324;23;20004;-77
2022/06/28 07:21:31;;;;;;;7.60;1.83;;;;;;;14.77;70.69;100603.16;6250930;23;20000;-76
2022/06/28 07:23:56;;;;;;;8.82;1.42;;;;;;;14.84;68.95;100600.88;6252712;23;20012;-78
2022/06/28 07:26:22;;;;;;;8.77;1.50;;;;;;;14.95;68.61;100584.25;6226773;23;20000;-76
2022/06/28 07:28:48;;;;;;;6.18;1.45;;;;;;;15.46;68.22;100586.44;6252597;23;20007;-77
2022/06/28 07:31:15;;;;;;;5.60;1.05;;;;;;;16.25;65.42;100584.25;6227519;23;20008;-76
2022/06/28 07:33:40;;;;;;;5.65;0.93;;;;;;;16.77;63.77;100600.78;6227814;23;20015;-77
2022/06/28 07:36:06;;;;;;;10.27;1.75;;;;;;;16.96;61.80;100614.53;6224515;23;20379;-77
2022/06/28 07:38:32;;;;;;;8.20;1.38;;;;;;;17.05;61.76;100594.19;6226500;23;20099;-77
2022/06/28 07:40:57;;;;;;;9.88;1.45;;;;;;;17.22;59.24;100596.34;6200527;23;20473;-77
2022/06/28 07:43:25;;;;;;;5.13;1.30;;;;;;;17.21;58.56;100583.66;6223123;23;20011;-77
2022/06/28 07:45:52;;;;;;;10.07;1.55;;;;;;;17.40;57.11;100596.56;6221142;23;20035;-77
2022/06/28 07:48:19;;;;;;;10.32;1.73;;;;;;;17.48;55.47;100626.25;6227908;23;20028;-77
2022/06/28 07:53:32;;;;;;;6.72;1.35;;;;;;;17.28;56.16;100584.06;6253398;23;20438;-77
2022/06/28 07:55:58;;;;;;;4.70;1.52;;;;;;;17.04;56.56;100586.19;6227268;23;20000;-77
2022/06/28 07:58:24;;;;;;;5.72;1.30;;;;;;;16.88;57.70;100588.44;6225330;23;20078;-76
2022/06/28 08:00:50;;;;;;;6.43;1.50;;;;;;;16.89;56.57;100579.03;6224745;23;20004;-77
2022/06/28 08:03:15;;;;;;;8.50;1.60;;;;;;;16.98;55.90;100571.69;6198025;23;20019;-76
2022/06/28 08:05:41;;;;;;;6.35;1.20;;;;;;;16.89;54.81;100577.09;6223059;23;20088;-75
2022/06/28 08:08:06;;;;;;;4.68;1.17;;;;;;;16.93;53.81;100577.28;6173542;23;20004;-75
2022/06/28 08:10:32;;;;;;;10.07;1.60;;;;;;;17.01;54.06;100592.34;6222320;23;20000;-75
2022/06/28 08:12:58;;;;;;;7.95;1.40;;;;;;;17.07;53.38;100588.38;6196168;23;20008;-76
2022/06/28 08:15:23;;;;;;;8.48;1.58;;;;;;;17.19;52.17;100605.25;6170069;23;20027;-78
2022/06/28 08:17:49;;;;;;;8.02;1.35;;;;;;;17.51;51.15;100583.31;6195744;23;20007;-79
2022/06/28 08:20:14;;;;;;;13.75;1.50;;;;;;;17.78;49.75;100576.94;6193906;23;20005;-78
2022/06/28 08:22:46;;;;;;;8.38;1.70;;;;;;;17.91;49.79;100578.88;6192156;23;20008;-78
2022/06/28 08:25:14;;;;;;;9.55;1.70;;;;;;;17.94;50.51;100556.13;6193857;23;20454;-76
2022/06/28 08:27:57;;;;;;;11.60;1.83;;;;;;;17.99;50.58;100568.19;6195115;23;20031;-77
2022/06/28 08:30:25;;;;;;;3.20;0.95;;;;;;;18.31;49.83;100553.28;6218911;23;20015;-77
2022/06/28 08:32:51;;;;;;;7.47;1.10;;;;;;;18.72;49.70;100570.81;6193515;23;20588;-76
2022/06/28 08:35:17;;;;;;;7.00;1.40;;;;;;;18.89;48.12;100573.72;6195537;23;20000;-75
2022/06/28 08:37:43;;;;;;;6.40;1.02;;;;;;;18.50;48.43;100566.97;6166202;23;20009;-76
2022/06/28 08:40:09;;;;;;;8.55;1.20;;;;;;;18.07;49.82;100573.00;6218174;23;20427;-75
2022/06/28 08:42:38;;;;;;;7.25;1.63;;;;;;;18.12;50.08;100567.31;6165066;23;20091;-75
2022/06/28 08:45:04;;;;;;;5.55;1.40;;;;;;;18.23;49.52;100552.13;6215537;23;20032;-74
2022/06/28 08:47:34;;;;;;;7.78;0.95;;;;;;;18.16;47.83;100557.28;6217139;23;20008;-75
2022/06/28 08:50:13;;;;;;;4.95;0.90;;;;;;;18.20;47.97;100566.59;6190838;23;20067;-76
2022/06/28 08:52:51;;;;;;;;;;;;;;;;;;;;;
2022/06/28 08:55:18;;;;;;;3.70;1.00;;;;;;;18.37;47.55;100563.13;6212563;23;20069;-75
2022/06/28 08:57:52;;;;;;;6.25;1.42;;;;;;;18.47;47.38;100539.88;6215510;23;20209;-74
2022/06/28 09:00:23;;;;;;;9.95;2.15;;;;;;;18.42;47.27;100551.91;6213177;23;20009;-76
2022/06/28 09:02:51;;;;;;;6.75;1.67;;;;;;;18.44;46.65;100552.44;6217315;23;20005;-75
2022/06/28 09:05:19;;;;;;;6.00;1.33;;;;;;;18.57;46.76;100550.69;6189252;23;20012;-75
2022/06/28 09:07:45;;;;;;;3.22;1.17;;;;;;;18.51;44.83;100557.50;6215757;23;20005;-75
2022/06/28 09:10:10;;;;;;;8.20;1.25;;;;;;;18.38;45.22;100541.78;6214969;23;20014;-75
2022/06/28 09:12:36;;;;;;;5.18;1.35;;;;;;;18.42;45.54;100542.81;6213057;23;20323;-76
2022/06/28 09:15:04;;;;;;;8.82;1.55;;;;;;;18.40;45.28;100534.81;6242560;22;20020;-75
2022/06/28 09:17:31;;;;;;;4.72;1.42;;;;;;;18.41;44.20;100535.63;6218917;23;20008;-75
2022/06/28 09:19:58;;;;;;;4.43;1.35;;;;;;;18.44;43.58;100551.59;6216385;23;20431;-76
2022/06/28 09:22:32;;;;;;;5.88;1.30;;;;;;;18.31;43.83;100547.75;6244416;23;20004;-76
2022/06/28 09:24:58;;;;;;;9.25;1.30;;;;;;;18.29;43.18;100539.78;6244244;23;20011;-76
2022/06/28 09:27:36;;;;;;;5.32;1.35;;;;;;;18.25;42.48;100537.97;6220561;23;20000;-77
2022/06/28 09:30:09;;;;;;;6.60;1.33;;;;;;;18.32;43.10;100549.41;6216396;23;20328;-74
2022/06/28 09:32:37;;;;;;;2.97;0.97;;;;;;;18.62;42.37;100517.34;6244597;23;20038;-76
2022/06/28 09:35:09;;;;;;;7.13;0.88;;;;;;;18.92;41.72;100519.63;6219187;23;20004;-77
2022/06/28 09:37:56;;;;;;;4.53;1.00;;;;;;;19.06;41.10;100522.28;6218345;23;20035;-76
2022/06/28 09:40:29;;;;;;;5.10;1.17;;;;;;;19.35;40.47;100524.47;6219321;23;20004;-76
2022/06/28 09:43:13;;;;;;;10.55;1.50;;;;;;;19.12;40.03;100512.69;6243972;23;20423;-76
2022/06/28 09:45:43;;;;;;;5.00;1.33;;;;;;;19.20;41.06;100511.88;6220316;23;20007;-77
2022/06/28 09:48:15;;;;;;;6.45;1.08;;;;;;;19.23;40.17;100511.25;6218513;23;20012;-76
2022/06/28 09:50:41;;;;;;;6.35;1.20;;;;;;;19.18;40.17;100534.38;6243984;23;20032;-75
2022/06/28 09:53:14;;;;;;;5.07;1.42;;;;;;;19.40;40.71;100516.00;6220771;23;20011;-76
2022/06/28 10:00:13;;;;;;;5.07;1.33;;;;;;;19.92;38.67;100476.41;6107190;23;20041;-77
2022/06/28 10:02:59;;;;;;;6.57;0.98;;;;;;;19.97;38.07;100484.56;6127450;23;20048;-77
2022/06/28 10:06:12;;;;;;;6.95;1.20;;;;;;;20.33;38.34;100507.53;6012913;23;20008;-78
2022/06/28 10:08:51;;;;;;;;;;;;;;;;;;;;;
2022/06/28 10:11:18;;;;;;;2.33;0.88;;;;;;;21.10;36.54;100485.38;6054847;23;20486;-75
2022/06/28 10:17:04;;;;;;;7.45;1.20;;;;;;;23.37;32.43;100487.81;6227860;23;20421;-76
2022/06/28 10:19:33;;;;;;;6.97;1.40;;;;;;;25.33;29.16;100494.69;6223946;23;20000;-76
2022/06/28 10:22:13;;;;;;;4.75;1.10;;;;;;;26.18;27.28;100489.31;6251546;23;20026;-76
2022/06/28 10:25:20;;;;;;;4.43;0.90;;;;;;;27.39;26.30;100494.53;6221946;23;20296;-75
2022/06/28 10:28:34;;;;;;;3.40;0.90;;;;;;;29.58;23.35;100483.81;6250203;23;20022;-77
2022/06/28 10:31:29;;;;;;;5.90;1.17;;;;;;;30.17;21.64;100513.88;6099337;23;20010;-78
2022/06/28 10:34:22;;;;;;;3.55;0.93;;;;;;;29.68;23.25;100502.78;6157733;23;19997;-76
2022/06/28 10:37:32;;;;;;;11.65;1.20;;;;;;;29.64;22.84;100496.31;6251384;23;20008;-75
2022/06/28 10:44:41;;;;;;;4.32;1.10;;;;;;;31.61;21.12;100475.16;6040908;23;20015;-77
2022/06/28 10:50:12;;;;;;;;;;;;;;;;;;;;;
2022/06/28 10:59:55;;;;;;;;;;;;;;;;;;;;;
2022/06/28 11:02:56;;;;;;;;;;;;;;;;;;;;;
2022/06/28 11:06:08;;;;;;;;;;;;;;;;;;;;;
2022/06/28 11:09:01;;;;;;;5.40;1.52;;;;;;;31.04;21.55;100487.38;6099836;23;20078;-77
2022/06/28 11:12:01;;;;;;;;;;;;;;;;;;;;;
2022/06/28 11:15:12;;;;;;;4.28;0.90;;;;;;;33.60;18.51;100470.81;6199177;23;20103;-76
2022/06/28 11:18:28;;;;;;;5.72;1.35;;;;;;;33.66;18.22;100477.63;6195317;23;20027;-76
2022/06/28 11:20:59;;;;;;;5.65;1.30;;;;;;;32.04;20.50;100457.19;6153036;23;20009;-77
2022/06/28 11:23:41;;;;;;;;;;;;;;;;;;;;;
2022/06/28 11:29:38;;;;;;;;;;;;;;;;;;;;;
2022/06/28 11:32:56;;;;;;;;;;;;;;;;;;;;;
2022/06/28 11:39:59;;;;;;;;;;;;;;;;;;;;;
2022/06/28 11:42:51;;;;;;;;;;;;;;;;;;;;;
2022/06/28 11:45:50;;;;;;;;;;;;;;;;;;;;;
2022/06/28 11:51:40;;;;;;;5.43;1.13;;;;;;;34.20;17.37;100440.84;6161113;23;20030;-76
2022/06/28 11:54:28;;;;;;;4.15;1.00;;;;;;;35.75;16.84;100474.22;6225941;23;20012;-76
2022/06/28 11:57:36;;;;;;;2.22;0.70;;;;;;;36.37;15.13;100462.28;6198957;23;20012;-79
2022/06/28 12:01:08;;;;;;;;;;;;;;;;;;;;;
2022/06/28 12:04:47;;;;;;;;;;;;;;;;;;;;;
2022/06/28 12:07:47;;;;;;;4.05;0.65;;;;;;;32.69;19.03;100468.09;5935174;23;20013;-75
2022/06/28 12:10:29;;;;;;;4.55;0.90;;;;;;;34.68;17.55;100443.72;5993486;23;20022;-76
2022/06/28 12:13:19;;;;;;;;;;;;;;;;;;;;;
2022/06/28 12:16:18;;;;;;;;;;;;;;;;;;;;;
2022/06/28 12:22:42;;;;;;;5.30;1.20;;;;;;;29.45;23.52;100445.94;6232668;23;20058;-77
2022/06/28 12:25:12;;;;;;;1.75;0.70;;;;;;;27.68;25.94;100470.44;6160010;23;20452;-78
2022/06/28 12:27:41;;;;;;;7.82;1.10;;;;;;;25.98;28.03;100423.22;6220710;23;20331;-78
2022/06/28 12:30:59;;;;;;;3.15;0.73;;;;;;;25.05;28.80;100417.31;6254073;23;20007;-78
2022/06/28 12:33:36;;;;;;;4.28;1.00;;;;;;;26.13;28.19;100434.34;6251099;23;20032;-78
2022/06/28 12:39:49;;;;;;;4.30;0.88;;;;;;;29.56;24.71;100438.34;6071502;23;20045;-76
2022/06/28 12:48:27;;;;;;;4.57;0.93;;;;;;;28.69;25.34;100414.50;6092699;23;20013;-77
2022/06/28 12:51:45;;;;;;;;;;;;;;;;;;;;;
2022/06/28 12:54:12;;;;;;;4.90;1.10;;;;;;;25.92;29.71;100440.34;6188160;23;20775;-75
2022/06/28 13:07:12;;;;;;;8.45;1.20;;;;;;;25.43;32.31;100427.75;6073649;23;20110;-77
2022/06/28 13:13:04;;;;;;;4.82;1.23;;;;;;;33.01;21.02;100399.03;5958818;24;20381;-75
2022/06/28 13:15:50;;;;;;;2.22;0.60;;;;;;;31.83;22.38;100418.53;6004927;23;20056;-76
2022/06/28 13:18:18;;;;;;;4.45;1.08;;;;;;;30.41;24.13;100425.69;6126045;23;20014;-75
2022/06/28 13:20:43;;;;;;;6.78;1.00;;;;;;;28.53;26.31;100414.75;6234208;23;20023;-77
2022/06/28 13:23:09;;;;;;;3.88;1.08;;;;;;;26.56;28.47;100411.88;6250794;23;20008;-75
2022/06/28 13:25:36;;;;;;;3.80;1.30;;;;;;;25.99;30.18;100391.25;6226503;23;20015;-77
2022/06/28 13:28:01;;;;;;;4.25;1.10;;;;;;;27.30;28.04;100407.75;6226051;23;20011;-75
2022/06/28 13:30:27;;;;;;;3.65;0.90;;;;;;;25.84;30.31;100401.38;6251423;23;20012;-76
2022/06/28 13:32:52;;;;;;;3.15;0.90;;;;;;;26.21;30.73;100398.06;6225920;23;20016;-77
2022/06/28 13:35:21;;;;;;;4.82;1.00;;;;;;;30.68;24.99;100391.44;6224700;23;20078;-76
2022/06/28 13:37:46;;;;;;;5.63;1.23;;;;;;;34.03;20.10;100405.84;6224943;23;20007;-77
2022/06/28 13:40:19;;;;;;;8.07;0.80;;;;;;;34.49;19.02;100414.88;6226326;23;20019;-76